sensor_id;sensor_type;location;lat;lon;timestamp;temperature;humidity
30069;DHT22;16894;49.456;10.644;2023-03-26T00:01:33;7.00;99.90
30069;DHT22;16894;49.456;10.644;2023-03-26T00:04:11;7.00;99.90
30069;DHT22;16894;49.456;10.644;2023-03-26T00:06:46;7.10;99.90
30069;DHT22;16894;49.456;10.644;2023-03-26T00:09:23;7.10;99.90
30069;DHT22;16894;49.456;10.644;2023-03-26T00:11:59;7.20;99.90
30069;DHT22;16894;49.456;10.644;2023-03-26T00:14:35;7.30;99.90
30069;DHT22;16894;49.456;10.644;2023-03-26T00:17:10;7.30;99.90
30069;DHT22;16894;49.456;10.644;2023-03-26T00:19:46;7.30;99.90
30069;DHT22;16894;49.456;10.644;2023-03-26T00:22:21;7.30;99.90
30069;DHT22;16894;49.456;10.644;2023-03-26T00:24:57;7.40;99.90
30069;DHT22;16894;49.456;10.644;2023-03-26T00:27:33;7.40;99.90
30069;DHT22;16894;49.456;10.644;2023-03-26T00:30:10;7.50;99.90
30069;DHT22;16894;49.456;10.644;2023-03-26T00:32:40;7.50;99.90
30069;DHT22;16894;49.456;10.644;2023-03-26T00:35:16;7.60;99.90
30069;DHT22;16894;49.456;10.644;2023-03-26T00:37:51;7.60;99.90
30069;DHT22;16894;49.456;10.644;2023-03-26T00:40:27;7.60;99.90
30069;DHT22;16894;49.456;10.644;2023-03-26T00:43:04;7.60;99.90
30069;DHT22;16894;49.456;10.644;2023-03-26T00:45:53;7.70;99.90
30069;DHT22;16894;49.456;10.644;2023-03-26T00:48:29;7.70;99.90
30069;DHT22;16894;49.456;10.644;2023-03-26T00:51:05;7.70;99.90
30069;DHT22;16894;49.456;10.644;2023-03-26T00:53:44;7.70;99.90
30069;DHT22;16894;49.456;10.644;2023-03-26T00:56:20;7.60;99.90
30069;DHT22;16894;49.456;10.644;2023-03-26T00:58:56;7.60;99.90
30069;DHT22;16894;49.456;10.644;2023-03-26T01:01:26;7.50;99.90
30069;DHT22;16894;49.456;10.644;2023-03-26T01:07:01;7.30;99.90
30069;DHT22;16894;49.456;10.644;2023-03-26T01:09:40;7.30;99.90
30069;DHT22;16894;49.456;10.644;2023-03-26T01:12:28;7.20;99.90
30069;DHT22;16894;49.456;10.644;2023-03-26T01:15:06;7.20;99.90
30069;DHT22;16894;49.456;10.644;2023-03-26T01:17:42;7.10;99.90
30069;DHT22;16894;49.456;10.644;2023-03-26T01:20:22;7.00;99.90
30069;DHT22;16894;49.456;10.644;2023-03-26T01:23:02;7.00;99.90
30069;DHT22;16894;49.456;10.644;2023-03-26T01:25:42;6.90;99.90
30069;DHT22;16894;49.456;10.644;2023-03-26T01:28:20;6.90;99.90
30069;DHT22;16894;49.456;10.644;2023-03-26T01:31:10;6.80;99.90
30069;DHT22;16894;49.456;10.644;2023-03-26T01:36:49;6.80;99.90
30069;DHT22;16894;49.456;10.644;2023-03-26T01:39:36;6.70;99.90
30069;DHT22;16894;49.456;10.644;2023-03-26T01:42:24;6.70;99.90
30069;DHT22;16894;49.456;10.644;2023-03-26T01:45:08;6.70;99.90
30069;DHT22;16894;49.456;10.644;2023-03-26T01:47:45;6.60;99.90
30069;DHT22;16894;49.456;10.644;2023-03-26T01:50:21;6.60;99.90
30069;DHT22;16894;49.456;10.644;2023-03-26T01:52:49;6.70;99.90
30069;DHT22;16894;49.456;10.644;2023-03-26T01:55:34;6.60;99.90
30069;DHT22;16894;49.456;10.644;2023-03-26T01:58:36;6.60;99.90
30069;DHT22;16894;49.456;10.644;2023-03-26T02:01:25;6.60;99.90
30069;DHT22;16894;49.456;10.644;2023-03-26T02:09:50;6.80;99.90
30069;DHT22;16894;49.456;10.644;2023-03-26T02:12:28;6.80;99.90
30069;DHT22;16894;49.456;10.644;2023-03-26T02:15:05;6.90;99.90
30069;DHT22;16894;49.456;10.644;2023-03-26T02:17:41;7.00;99.90
30069;DHT22;16894;49.456;10.644;2023-03-26T02:20:17;7.00;99.90
30069;DHT22;16894;49.456;10.644;2023-03-26T02:22:53;7.00;99.90
30069;DHT22;16894;49.456;10.644;2023-03-26T02:25:29;7.00;99.90
30069;DHT22;16894;49.456;10.644;2023-03-26T02:28:05;6.90;99.90
30069;DHT22;16894;49.456;10.644;2023-03-26T02:30:41;6.80;99.90
30069;DHT22;16894;49.456;10.644;2023-03-26T02:33:20;6.80;99.90
30069;DHT22;16894;49.456;10.644;2023-03-26T02:35:57;6.80;99.90
30069;DHT22;16894;49.456;10.644;2023-03-26T02:38:39;6.70;99.90
30069;DHT22;16894;49.456;10.644;2023-03-26T02:41:16;6.60;99.90
30069;DHT22;16894;49.456;10.644;2023-03-26T02:43:46;6.60;99.90
30069;DHT22;16894;49.456;10.644;2023-03-26T02:46:21;6.50;99.90
30069;DHT22;16894;49.456;10.644;2023-03-26T02:48:57;6.50;99.90
30069;DHT22;16894;49.456;10.644;2023-03-26T02:51:33;6.40;99.90
30069;DHT22;16894;49.456;10.644;2023-03-26T02:54:09;6.40;99.90
30069;DHT22;16894;49.456;10.644;2023-03-26T02:56:36;6.40;99.90
30069;DHT22;16894;49.456;10.644;2023-03-26T02:59:12;6.30;99.90
30069;DHT22;16894;49.456;10.644;2023-03-26T03:01:48;6.30;99.90
30069;DHT22;16894;49.456;10.644;2023-03-26T03:04:23;6.30;99.90
30069;DHT22;16894;49.456;10.644;2023-03-26T03:06:59;6.30;99.90
30069;DHT22;16894;49.456;10.644;2023-03-26T03:09:35;6.30;99.90
30069;DHT22;16894;49.456;10.644;2023-03-26T03:12:10;6.30;99.90
30069;DHT22;16894;49.456;10.644;2023-03-26T03:14:46;6.40;99.90
30069;DHT22;16894;49.456;10.644;2023-03-26T03:17:13;6.50;99.90
30069;DHT22;16894;49.456;10.644;2023-03-26T03:19:48;6.50;99.90
30069;DHT22;16894;49.456;10.644;2023-03-26T03:22:24;6.60;99.90
30069;DHT22;16894;49.456;10.644;2023-03-26T03:24:59;6.60;99.90
30069;DHT22;16894;49.456;10.644;2023-03-26T03:27:35;6.60;99.90
30069;DHT22;16894;49.456;10.644;2023-03-26T03:30:13;6.50;99.90
30069;DHT22;16894;49.456;10.644;2023-03-26T03:32:49;6.50;99.90
30069;DHT22;16894;49.456;10.644;2023-03-26T03:35:25;6.50;99.90
30069;DHT22;16894;49.456;10.644;2023-03-26T03:38:01;6.40;99.90
30069;DHT22;16894;49.456;10.644;2023-03-26T03:40:37;6.40;99.90
30069;DHT22;16894;49.456;10.644;2023-03-26T03:43:13;6.40;99.90
30069;DHT22;16894;49.456;10.644;2023-03-26T03:45:48;6.40;99.90
30069;DHT22;16894;49.456;10.644;2023-03-26T03:48:24;6.30;99.90
30069;DHT22;16894;49.456;10.644;2023-03-26T03:51:00;6.30;99.90
30069;DHT22;16894;49.456;10.644;2023-03-26T03:53:31;6.30;99.90
30069;DHT22;16894;49.456;10.644;2023-03-26T03:56:06;6.20;99.90
30069;DHT22;16894;49.456;10.644;2023-03-26T03:58:44;6.20;99.90
30069;DHT22;16894;49.456;10.644;2023-03-26T04:01:20;6.10;99.90
30069;DHT22;16894;49.456;10.644;2023-03-26T04:03:57;6.00;99.90
30069;DHT22;16894;49.456;10.644;2023-03-26T04:06:33;6.00;99.90
30069;DHT22;16894;49.456;10.644;2023-03-26T04:09:08;5.90;99.90
30069;DHT22;16894;49.456;10.644;2023-03-26T04:11:44;5.90;99.90
30069;DHT22;16894;49.456;10.644;2023-03-26T04:14:20;5.90;99.90
30069;DHT22;16894;49.456;10.644;2023-03-26T04:16:48;5.80;99.90
30069;DHT22;16894;49.456;10.644;2023-03-26T04:19:24;5.70;99.90
30069;DHT22;16894;49.456;10.644;2023-03-26T04:22:01;5.70;99.90
30069;DHT22;16894;49.456;10.644;2023-03-26T04:24:37;5.70;99.90
30069;DHT22;16894;49.456;10.644;2023-03-26T04:27:12;5.60;99.90
30069;DHT22;16894;49.456;10.644;2023-03-26T04:29:49;5.60;99.90
30069;DHT22;16894;49.456;10.644;2023-03-26T04:32:26;5.50;99.90
30069;DHT22;16894;49.456;10.644;2023-03-26T04:35:04;5.50;99.90
30069;DHT22;16894;49.456;10.644;2023-03-26T04:37:41;5.50;99.90
30069;DHT22;16894;49.456;10.644;2023-03-26T04:40:21;5.50;99.90
30069;DHT22;16894;49.456;10.644;2023-03-26T04:42:57;5.50;99.90
30069;DHT22;16894;49.456;10.644;2023-03-26T04:45:36;5.50;99.90
30069;DHT22;16894;49.456;10.644;2023-03-26T04:48:12;5.40;99.90
30069;DHT22;16894;49.456;10.644;2023-03-26T04:50:49;5.40;99.90
30069;DHT22;16894;49.456;10.644;2023-03-26T04:53:24;5.40;99.90
30069;DHT22;16894;49.456;10.644;2023-03-26T04:56:05;5.30;99.90
30069;DHT22;16894;49.456;10.644;2023-03-26T04:58:43;5.30;99.90
30069;DHT22;16894;49.456;10.644;2023-03-26T05:01:19;5.40;99.90
30069;DHT22;16894;49.456;10.644;2023-03-26T05:03:56;5.30;99.90
30069;DHT22;16894;49.456;10.644;2023-03-26T05:06:32;5.30;99.90
30069;DHT22;16894;49.456;10.644;2023-03-26T05:09:08;5.20;99.90
30069;DHT22;16894;49.456;10.644;2023-03-26T05:11:45;5.20;99.90
30069;DHT22;16894;49.456;10.644;2023-03-26T05:14:20;5.20;99.90
30069;DHT22;16894;49.456;10.644;2023-03-26T05:16:56;5.10;99.90
30069;DHT22;16894;49.456;10.644;2023-03-26T05:19:31;5.20;99.90
30069;DHT22;16894;49.456;10.644;2023-03-26T05:22:07;5.20;99.90
30069;DHT22;16894;49.456;10.644;2023-03-26T05:24:43;5.30;99.90
30069;DHT22;16894;49.456;10.644;2023-03-26T05:27:18;5.30;99.90
30069;DHT22;16894;49.456;10.644;2023-03-26T05:30:01;5.40;99.90
30069;DHT22;16894;49.456;10.644;2023-03-26T05:32:36;5.50;99.90
30069;DHT22;16894;49.456;10.644;2023-03-26T05:35:12;5.50;99.90
30069;DHT22;16894;49.456;10.644;2023-03-26T05:37:49;5.50;99.90
30069;DHT22;16894;49.456;10.644;2023-03-26T05:40:25;5.50;99.90
30069;DHT22;16894;49.456;10.644;2023-03-26T05:43:01;5.50;99.90
30069;DHT22;16894;49.456;10.644;2023-03-26T05:45:37;5.50;99.90
30069;DHT22;16894;49.456;10.644;2023-03-26T05:48:13;5.50;99.90
30069;DHT22;16894;49.456;10.644;2023-03-26T05:50:53;5.60;99.90
30069;DHT22;16894;49.456;10.644;2023-03-26T05:53:29;5.70;99.90
30069;DHT22;16894;49.456;10.644;2023-03-26T05:56:05;5.80;99.90
30069;DHT22;16894;49.456;10.644;2023-03-26T05:58:41;5.80;99.90
30069;DHT22;16894;49.456;10.644;2023-03-26T06:01:18;5.90;99.90
30069;DHT22;16894;49.456;10.644;2023-03-26T06:03:54;5.90;99.90
30069;DHT22;16894;49.456;10.644;2023-03-26T06:06:29;5.90;99.90
30069;DHT22;16894;49.456;10.644;2023-03-26T06:09:05;6.00;99.90
30069;DHT22;16894;49.456;10.644;2023-03-26T06:11:41;6.00;99.90
30069;DHT22;16894;49.456;10.644;2023-03-26T06:14:17;6.00;99.90
30069;DHT22;16894;49.456;10.644;2023-03-26T06:16:53;6.00;99.90
30069;DHT22;16894;49.456;10.644;2023-03-26T06:19:28;6.10;99.90
30069;DHT22;16894;49.456;10.644;2023-03-26T06:22:04;6.20;99.90
30069;DHT22;16894;49.456;10.644;2023-03-26T06:24:40;6.30;99.90
30069;DHT22;16894;49.456;10.644;2023-03-26T06:27:16;6.40;99.90
30069;DHT22;16894;49.456;10.644;2023-03-26T06:29:51;6.40;99.90
30069;DHT22;16894;49.456;10.644;2023-03-26T06:32:27;6.50;99.90
30069;DHT22;16894;49.456;10.644;2023-03-26T06:35:03;6.60;99.90
30069;DHT22;16894;49.456;10.644;2023-03-26T06:37:39;6.60;99.90
30069;DHT22;16894;49.456;10.644;2023-03-26T06:40:21;6.70;99.90
30069;DHT22;16894;49.456;10.644;2023-03-26T06:43:06;6.80;99.90
30069;DHT22;16894;49.456;10.644;2023-03-26T06:45:52;6.90;99.90
30069;DHT22;16894;49.456;10.644;2023-03-26T06:48:38;6.90;99.90
30069;DHT22;16894;49.456;10.644;2023-03-26T06:51:25;7.10;99.90
30069;DHT22;16894;49.456;10.644;2023-03-26T06:54:10;7.10;99.90
30069;DHT22;16894;49.456;10.644;2023-03-26T06:56:52;7.20;99.90
30069;DHT22;16894;49.456;10.644;2023-03-26T06:59:38;7.20;99.90
30069;DHT22;16894;49.456;10.644;2023-03-26T07:02:23;7.10;99.90
30069;DHT22;16894;49.456;10.644;2023-03-26T07:05:09;7.00;99.90
30069;DHT22;16894;49.456;10.644;2023-03-26T07:07:54;7.00;99.90
30069;DHT22;16894;49.456;10.644;2023-03-26T07:10:40;6.90;99.90
30069;DHT22;16894;49.456;10.644;2023-03-26T07:13:26;6.90;99.90
30069;DHT22;16894;49.456;10.644;2023-03-26T07:16:12;6.90;99.90
30069;DHT22;16894;49.456;10.644;2023-03-26T07:18:58;6.90;99.90
30069;DHT22;16894;49.456;10.644;2023-03-26T07:21:45;7.00;99.90
30069;DHT22;16894;49.456;10.644;2023-03-26T07:24:31;7.00;99.90
30069;DHT22;16894;49.456;10.644;2023-03-26T07:33:34;7.20;99.90
30069;DHT22;16894;49.456;10.644;2023-03-26T07:36:34;7.30;99.90
30069;DHT22;16894;49.456;10.644;2023-03-26T07:45:42;7.40;99.90
30069;DHT22;16894;49.456;10.644;2023-03-26T07:48:42;7.40;99.90
30069;DHT22;16894;49.456;10.644;2023-03-26T07:51:28;7.40;99.90
30069;DHT22;16894;49.456;10.644;2023-03-26T07:54:14;7.50;99.90
30069;DHT22;16894;49.456;10.644;2023-03-26T07:57:36;7.60;99.90
30069;DHT22;16894;49.456;10.644;2023-03-26T08:00:36;7.50;99.90
30069;DHT22;16894;49.456;10.644;2023-03-26T08:03:41;7.40;99.90
30069;DHT22;16894;49.456;10.644;2023-03-26T08:06:36;7.40;99.90
30069;DHT22;16894;49.456;10.644;2023-03-26T08:09:40;7.40;99.90
30069;DHT22;16894;49.456;10.644;2023-03-26T08:12:39;7.30;99.90
30069;DHT22;16894;49.456;10.644;2023-03-26T08:18:45;7.20;99.90
30069;DHT22;16894;49.456;10.644;2023-03-26T08:21:52;7.10;99.90
30069;DHT22;16894;49.456;10.644;2023-03-26T08:30:49;7.30;99.90
30069;DHT22;16894;49.456;10.644;2023-03-26T08:33:39;7.30;99.90
30069;DHT22;16894;49.456;10.644;2023-03-26T08:36:25;7.40;99.90
30069;DHT22;16894;49.456;10.644;2023-03-26T08:39:11;7.40;99.90
30069;DHT22;16894;49.456;10.644;2023-03-26T08:42:07;7.40;99.90
30069;DHT22;16894;49.456;10.644;2023-03-26T08:51:57;7.20;99.90
30069;DHT22;16894;49.456;10.644;2023-03-26T09:02:09;7.20;99.90
30069;DHT22;16894;49.456;10.644;2023-03-26T09:04:40;7.20;99.90
30069;DHT22;16894;49.456;10.644;2023-03-26T09:47:18;7.30;99.90
30069;DHT22;16894;49.456;10.644;2023-03-26T09:50:32;7.30;99.90
30069;DHT22;16894;49.456;10.644;2023-03-26T09:53:46;7.30;99.90
30069;DHT22;16894;49.456;10.644;2023-03-26T09:57:01;7.30;99.90
30069;DHT22;16894;49.456;10.644;2023-03-26T10:03:12;7.30;99.90
30069;DHT22;16894;49.456;10.644;2023-03-26T10:09:37;7.10;99.90
30069;DHT22;16894;49.456;10.644;2023-03-26T10:12:43;7.10;99.90
30069;DHT22;16894;49.456;10.644;2023-03-26T10:25:26;7.10;99.90
30069;DHT22;16894;49.456;10.644;2023-03-26T10:41:16;7.00;99.90
30069;DHT22;16894;49.456;10.644;2023-03-26T10:47:33;7.00;99.90
30069;DHT22;16894;49.456;10.644;2023-03-26T10:50:27;7.10;99.90
30069;DHT22;16894;49.456;10.644;2023-03-26T10:53:41;7.00;99.90
30069;DHT22;16894;49.456;10.644;2023-03-26T10:56:48;7.00;99.90
30069;DHT22;16894;49.456;10.644;2023-03-26T10:59:34;7.30;99.90
30069;DHT22;16894;49.456;10.644;2023-03-26T11:02:52;7.50;99.90
30069;DHT22;16894;49.456;10.644;2023-03-26T11:14:57;8.00;99.90
30069;DHT22;16894;49.456;10.644;2023-03-26T11:20:51;7.90;99.90
30069;DHT22;16894;49.456;10.644;2023-03-26T11:23:46;8.10;99.90
30069;DHT22;16894;49.456;10.644;2023-03-26T11:26:57;7.90;99.90
30069;DHT22;16894;49.456;10.644;2023-03-26T11:32:49;7.60;99.90
30069;DHT22;16894;49.456;10.644;2023-03-26T11:35:38;7.60;99.90
30069;DHT22;16894;49.456;10.644;2023-03-26T11:38:33;7.80;99.90
30069;DHT22;16894;49.456;10.644;2023-03-26T11:41:24;7.70;99.90
30069;DHT22;16894;49.456;10.644;2023-03-26T11:47:03;7.90;99.90
30069;DHT22;16894;49.456;10.644;2023-03-26T11:49:52;8.10;99.90
30069;DHT22;16894;49.456;10.644;2023-03-26T11:52:39;8.00;99.90
30069;DHT22;16894;49.456;10.644;2023-03-26T11:55:26;8.00;99.90
30069;DHT22;16894;49.456;10.644;2023-03-26T11:58:37;7.90;99.90
30069;DHT22;16894;49.456;10.644;2023-03-26T12:01:27;8.00;99.90
30069;DHT22;16894;49.456;10.644;2023-03-26T12:04:16;8.10;99.90
30069;DHT22;16894;49.456;10.644;2023-03-26T12:07:21;8.40;99.90
30069;DHT22;16894;49.456;10.644;2023-03-26T12:16:15;10.00;99.90
30069;DHT22;16894;49.456;10.644;2023-03-26T12:19:04;11.70;99.90
30069;DHT22;16894;49.456;10.644;2023-03-26T12:21:51;13.30;99.90
30069;DHT22;16894;49.456;10.644;2023-03-26T12:24:37;14.40;99.90
30069;DHT22;16894;49.456;10.644;2023-03-26T12:27:25;15.40;99.90
30069;DHT22;16894;49.456;10.644;2023-03-26T12:30:31;16.20;99.90
30069;DHT22;16894;49.456;10.644;2023-03-26T12:33:23;16.50;99.90
30069;DHT22;16894;49.456;10.644;2023-03-26T12:36:23;16.70;99.90
30069;DHT22;16894;49.456;10.644;2023-03-26T12:39:36;17.90;98.40
30069;DHT22;16894;49.456;10.644;2023-03-26T12:42:30;18.50;96.50
30069;DHT22;16894;49.456;10.644;2023-03-26T12:45:19;18.00;96.90
30069;DHT22;16894;49.456;10.644;2023-03-26T12:48:13;18.20;94.60
30069;DHT22;16894;49.456;10.644;2023-03-26T12:51:25;19.30;94.90
30069;DHT22;16894;49.456;10.644;2023-03-26T13:00:08;19.20;90.80
30069;DHT22;16894;49.456;10.644;2023-03-26T13:06:24;19.60;84.80
30069;DHT22;16894;49.456;10.644;2023-03-26T13:15:25;17.10;92.40
30069;DHT22;16894;49.456;10.644;2023-03-26T13:36:43;11.80;99.90
30069;DHT22;16894;49.456;10.644;2023-03-26T13:39:49;11.30;99.90
30069;DHT22;16894;49.456;10.644;2023-03-26T13:45:48;10.00;99.90
30069;DHT22;16894;49.456;10.644;2023-03-26T13:48:46;9.70;99.90
30069;DHT22;16894;49.456;10.644;2023-03-26T13:54:38;9.40;99.90
30069;DHT22;16894;49.456;10.644;2023-03-26T13:57:36;11.50;99.90
30069;DHT22;16894;49.456;10.644;2023-03-26T14:00:44;14.20;99.90
30069;DHT22;16894;49.456;10.644;2023-03-26T14:07:12;16.90;99.90
30069;DHT22;16894;49.456;10.644;2023-03-26T14:10:11;18.40;99.30
30069;DHT22;16894;49.456;10.644;2023-03-26T14:13:25;18.90;95.30
30069;DHT22;16894;49.456;10.644;2023-03-26T14:16:27;20.40;94.20
30069;DHT22;16894;49.456;10.644;2023-03-26T14:19:35;21.80;86.20
30069;DHT22;16894;49.456;10.644;2023-03-26T14:22:34;21.30;84.20
30069;DHT22;16894;49.456;10.644;2023-03-26T14:31:32;20.30;82.30
30069;DHT22;16894;49.456;10.644;2023-03-26T14:34:28;20.30;81.60
30069;DHT22;16894;49.456;10.644;2023-03-26T14:37:58;19.50;82.60
30069;DHT22;16894;49.456;10.644;2023-03-26T14:40:55;19.30;80.70
30069;DHT22;16894;49.456;10.644;2023-03-26T14:44:12;19.70;79.90
30069;DHT22;16894;49.456;10.644;2023-03-26T14:47:19;19.70;80.10
30069;DHT22;16894;49.456;10.644;2023-03-26T14:50:23;20.00;76.10
30069;DHT22;16894;49.456;10.644;2023-03-26T14:53:29;21.20;73.60
30069;DHT22;16894;49.456;10.644;2023-03-26T14:56:41;21.10;68.60
30069;DHT22;16894;49.456;10.644;2023-03-26T15:27:22;14.90;73.00
30069;DHT22;16894;49.456;10.644;2023-03-26T15:39:45;14.40;76.90
30069;DHT22;16894;49.456;10.644;2023-03-26T15:45:51;13.40;78.40
30069;DHT22;16894;49.456;10.644;2023-03-26T15:48:53;13.00;78.60
30069;DHT22;16894;49.456;10.644;2023-03-26T15:55:19;12.20;82.20
30069;DHT22;16894;49.456;10.644;2023-03-26T16:01:30;11.90;84.60
30069;DHT22;16894;49.456;10.644;2023-03-26T16:10:34;11.40;88.70
30069;DHT22;16894;49.456;10.644;2023-03-26T16:13:26;11.40;89.40
30069;DHT22;16894;49.456;10.644;2023-03-26T16:25:55;11.20;91.40
30069;DHT22;16894;49.456;10.644;2023-03-26T16:31:32;11.10;92.60
30069;DHT22;16894;49.456;10.644;2023-03-26T16:34:25;11.00;92.80
30069;DHT22;16894;49.456;10.644;2023-03-26T16:40:31;10.90;93.00
30069;DHT22;16894;49.456;10.644;2023-03-26T16:43:40;10.90;93.90
30069;DHT22;16894;49.456;10.644;2023-03-26T16:46:33;10.80;94.30
30069;DHT22;16894;49.456;10.644;2023-03-26T16:52:22;10.70;94.90
30069;DHT22;16894;49.456;10.644;2023-03-26T16:58:29;10.60;94.80
30069;DHT22;16894;49.456;10.644;2023-03-26T17:01:30;10.60;95.90
30069;DHT22;16894;49.456;10.644;2023-03-26T17:04:20;10.50;96.40
30069;DHT22;16894;49.456;10.644;2023-03-26T17:07:11;10.50;95.60
30069;DHT22;16894;49.456;10.644;2023-03-26T17:12:59;10.40;96.40
30069;DHT22;16894;49.456;10.644;2023-03-26T17:19:29;10.40;97.30
30069;DHT22;16894;49.456;10.644;2023-03-26T17:24:58;10.10;98.40
30069;DHT22;16894;49.456;10.644;2023-03-26T17:43:45;9.10;99.90
30069;DHT22;16894;49.456;10.644;2023-03-26T17:46:40;9.10;99.90
30069;DHT22;16894;49.456;10.644;2023-03-26T17:49:29;9.10;99.90
30069;DHT22;16894;49.456;10.644;2023-03-26T17:52:28;9.10;99.90
30069;DHT22;16894;49.456;10.644;2023-03-26T17:55:21;9.00;99.90
30069;DHT22;16894;49.456;10.644;2023-03-26T18:03:56;8.90;99.90
30069;DHT22;16894;49.456;10.644;2023-03-26T18:13:32;8.10;99.90
30069;DHT22;16894;49.456;10.644;2023-03-26T18:19:19;7.60;99.90
30069;DHT22;16894;49.456;10.644;2023-03-26T18:22:16;7.50;99.90
30069;DHT22;16894;49.456;10.644;2023-03-26T18:25:04;7.50;99.90
30069;DHT22;16894;49.456;10.644;2023-03-26T18:27:50;7.50;99.90
30069;DHT22;16894;49.456;10.644;2023-03-26T18:30:45;7.50;99.90
30069;DHT22;16894;49.456;10.644;2023-03-26T18:33:41;7.50;99.90
30069;DHT22;16894;49.456;10.644;2023-03-26T18:36:29;7.40;99.90
30069;DHT22;16894;49.456;10.644;2023-03-26T18:39:17;7.40;99.90
30069;DHT22;16894;49.456;10.644;2023-03-26T18:42:03;7.50;99.90
30069;DHT22;16894;49.456;10.644;2023-03-26T18:44:50;7.40;99.90
30069;DHT22;16894;49.456;10.644;2023-03-26T18:47:36;7.40;99.90
30069;DHT22;16894;49.456;10.644;2023-03-26T18:50:28;7.40;99.90
30069;DHT22;16894;49.456;10.644;2023-03-26T18:53:18;7.40;99.90
30069;DHT22;16894;49.456;10.644;2023-03-26T18:56:23;7.40;99.90
30069;DHT22;16894;49.456;10.644;2023-03-26T18:59:29;7.50;99.90
30069;DHT22;16894;49.456;10.644;2023-03-26T19:02:18;7.50;99.90
30069;DHT22;16894;49.456;10.644;2023-03-26T19:05:05;7.50;99.90
30069;DHT22;16894;49.456;10.644;2023-03-26T19:07:51;7.50;99.90
30069;DHT22;16894;49.456;10.644;2023-03-26T19:10:38;7.40;99.90
30069;DHT22;16894;49.456;10.644;2023-03-26T19:13:26;7.40;99.90
30069;DHT22;16894;49.456;10.644;2023-03-26T19:16:26;7.40;99.90
30069;DHT22;16894;49.456;10.644;2023-03-26T19:19:19;7.40;99.90
30069;DHT22;16894;49.456;10.644;2023-03-26T19:22:10;7.40;99.90
30069;DHT22;16894;49.456;10.644;2023-03-26T19:24:58;7.40;99.90
30069;DHT22;16894;49.456;10.644;2023-03-26T19:27:44;7.40;99.90
30069;DHT22;16894;49.456;10.644;2023-03-26T19:30:33;7.30;99.90
30069;DHT22;16894;49.456;10.644;2023-03-26T19:33:19;7.40;99.90
30069;DHT22;16894;49.456;10.644;2023-03-26T19:41:49;7.30;99.90
30069;DHT22;16894;49.456;10.644;2023-03-26T19:44:36;7.30;99.90
30069;DHT22;16894;49.456;10.644;2023-03-26T19:47:44;7.20;99.90
30069;DHT22;16894;49.456;10.644;2023-03-26T19:50:33;7.20;99.90
30069;DHT22;16894;49.456;10.644;2023-03-26T19:53:28;7.20;99.90
30069;DHT22;16894;49.456;10.644;2023-03-26T19:56:14;7.10;99.90
30069;DHT22;16894;49.456;10.644;2023-03-26T19:59:02;7.10;99.90
30069;DHT22;16894;49.456;10.644;2023-03-26T20:01:49;7.00;99.90
30069;DHT22;16894;49.456;10.644;2023-03-26T20:04:35;7.00;99.90
30069;DHT22;16894;49.456;10.644;2023-03-26T20:07:22;7.00;99.90
30069;DHT22;16894;49.456;10.644;2023-03-26T20:10:11;7.00;99.90
30069;DHT22;16894;49.456;10.644;2023-03-26T20:12:56;7.00;99.90
30069;DHT22;16894;49.456;10.644;2023-03-26T20:15:56;7.00;99.90
30069;DHT22;16894;49.456;10.644;2023-03-26T20:18:46;7.10;99.90
30069;DHT22;16894;49.456;10.644;2023-03-26T20:21:32;7.00;99.90
30069;DHT22;16894;49.456;10.644;2023-03-26T20:24:23;7.00;99.90
30069;DHT22;16894;49.456;10.644;2023-03-26T20:27:10;7.00;99.90
30069;DHT22;16894;49.456;10.644;2023-03-26T20:29:57;7.00;99.90
30069;DHT22;16894;49.456;10.644;2023-03-26T20:32:43;6.90;99.90
30069;DHT22;16894;49.456;10.644;2023-03-26T20:35:30;6.90;99.90
30069;DHT22;16894;49.456;10.644;2023-03-26T20:38:16;6.90;99.90
30069;DHT22;16894;49.456;10.644;2023-03-26T20:41:01;6.80;99.90
30069;DHT22;16894;49.456;10.644;2023-03-26T20:43:48;6.80;99.90
30069;DHT22;16894;49.456;10.644;2023-03-26T20:46:33;6.70;99.90
30069;DHT22;16894;49.456;10.644;2023-03-26T20:49:19;6.80;99.90
30069;DHT22;16894;49.456;10.644;2023-03-26T20:52:06;6.90;99.90
30069;DHT22;16894;49.456;10.644;2023-03-26T20:54:52;6.90;99.90
30069;DHT22;16894;49.456;10.644;2023-03-26T20:57:38;6.80;99.90
30069;DHT22;16894;49.456;10.644;2023-03-26T21:00:23;6.80;99.90
30069;DHT22;16894;49.456;10.644;2023-03-26T21:03:12;6.70;99.90
30069;DHT22;16894;49.456;10.644;2023-03-26T21:06:03;6.70;99.90
30069;DHT22;16894;49.456;10.644;2023-03-26T21:08:49;6.70;99.90
30069;DHT22;16894;49.456;10.644;2023-03-26T21:14:36;6.70;99.90
30069;DHT22;16894;49.456;10.644;2023-03-26T21:17:28;6.70;99.90
30069;DHT22;16894;49.456;10.644;2023-03-26T21:20:15;6.70;99.90
30069;DHT22;16894;49.456;10.644;2023-03-26T21:23:35;6.70;99.90
30069;DHT22;16894;49.456;10.644;2023-03-26T21:26:30;6.80;99.90
30069;DHT22;16894;49.456;10.644;2023-03-26T21:29:17;6.80;99.90
30069;DHT22;16894;49.456;10.644;2023-03-26T21:32:02;6.80;99.90
30069;DHT22;16894;49.456;10.644;2023-03-26T21:34:50;6.90;99.90
30069;DHT22;16894;49.456;10.644;2023-03-26T21:37:35;7.00;99.90
30069;DHT22;16894;49.456;10.644;2023-03-26T21:40:22;7.00;99.90
30069;DHT22;16894;49.456;10.644;2023-03-26T21:43:10;7.00;99.90
30069;DHT22;16894;49.456;10.644;2023-03-26T21:45:56;7.10;99.90
30069;DHT22;16894;49.456;10.644;2023-03-26T21:48:43;7.10;99.90
30069;DHT22;16894;49.456;10.644;2023-03-26T21:51:29;7.10;99.90
30069;DHT22;16894;49.456;10.644;2023-03-26T21:57:36;7.10;99.90
30069;DHT22;16894;49.456;10.644;2023-03-26T22:00:27;7.10;99.90
30069;DHT22;16894;49.456;10.644;2023-03-26T22:03:26;7.10;99.90
30069;DHT22;16894;49.456;10.644;2023-03-26T22:09:16;7.10;99.90
30069;DHT22;16894;49.456;10.644;2023-03-26T22:12:02;7.10;99.90
30069;DHT22;16894;49.456;10.644;2023-03-26T22:14:48;7.10;99.90
30069;DHT22;16894;49.456;10.644;2023-03-26T22:17:33;7.00;99.90
30069;DHT22;16894;49.456;10.644;2023-03-26T22:20:20;7.00;99.90
30069;DHT22;16894;49.456;10.644;2023-03-26T22:23:15;6.90;99.90
30069;DHT22;16894;49.456;10.644;2023-03-26T22:26:04;6.80;99.90
30069;DHT22;16894;49.456;10.644;2023-03-26T22:28:50;6.70;99.90
30069;DHT22;16894;49.456;10.644;2023-03-26T22:31:40;6.60;99.90
30069;DHT22;16894;49.456;10.644;2023-03-26T22:34:25;6.60;99.90
30069;DHT22;16894;49.456;10.644;2023-03-26T22:37:11;6.60;99.90
30069;DHT22;16894;49.456;10.644;2023-03-26T22:39:57;6.50;99.90
30069;DHT22;16894;49.456;10.644;2023-03-26T22:42:44;6.50;99.90
30069;DHT22;16894;49.456;10.644;2023-03-26T22:45:30;6.50;99.90
30069;DHT22;16894;49.456;10.644;2023-03-26T22:48:15;6.40;99.90
30069;DHT22;16894;49.456;10.644;2023-03-26T22:51:04;6.40;99.90
30069;DHT22;16894;49.456;10.644;2023-03-26T22:53:51;6.50;99.90